Terminal Aerodrome Forecast
Issued by NWS Jacksonville, FL

Home | Current Version | Previous Version | Text Only | Print | Product List | Glossary On
Versions: 1 2 3 4 5 6 7 8 9 10 11 12 13 14 15 16 17 18 19 20 21 22 23 24 25
000
FTUS42 KJAX 141937 AAA
TAFJAX
TAF AMD
KJAX 141937Z 1420/1518 05015KT P6SM BKN025 BKN040
     FM150000 05004KT P6SM OVC025
     FM150800 12004KT 4SM BR OVC015
     FM151400 14010KT P6SM OVC025
     FM151700 14014G22KT P6SM OVC035=

USA.gov is the U.S. government's official web portal to all federal, state and local government web resources and services.